GAP2923 RPLL-RPVB
Flight info
| Callsign | GAP2923 |
|---|---|
| Flight time | N/A |
| Altitude | 31000 |
| Route | VERDE4V VERDE A461 SAJ W3 BEDER BEDER3P |
| Aircraft | A320/M-SDE3FGHIRWY/LB1 |
Departure
| Time | 2026-05-08 04:39 |
|---|---|
| Airport | Ninoy Aquino International Airport (RPLL) |
Arrival
| Time | N/A |
|---|---|
| Airport | Bacolod-Silay International Airport (RPVB) |
| Time | Latitude | Longitude | Altitude | Speed | Heading |
|---|---|---|---|---|---|
| 2026-05-08 04:11 | 14.50881 | 121.01370 | 69 ft | 0 kts | 330° |
| 2026-05-08 04:32 | 14.50875 | 121.01373 | 60 ft | 2 kts | 328° |
| 2026-05-08 04:32 | 14.50862 | 121.01381 | 61 ft | 2 kts | 328° |
| 2026-05-08 04:32 | 14.50849 | 121.01390 | 63 ft | 2 kts | 328° |
| 2026-05-08 04:33 | 14.50835 | 121.01399 | 65 ft | 2 kts | 328° |
| 2026-05-08 04:33 | 14.50821 | 121.01408 | 64 ft | 3 kts | 347° |
| 2026-05-08 04:33 | 14.50815 | 121.01410 | 62 ft | 0 kts | 26° |
| 2026-05-08 04:37 | 14.50816 | 121.01411 | 62 ft | 2 kts | 31° |
| 2026-05-08 04:37 | 14.50831 | 121.01457 | 65 ft | 10 kts | 69° |
| 2026-05-08 04:37 | 14.50872 | 121.01534 | 61 ft | 15 kts | 62° |
| 2026-05-08 04:37 | 14.50921 | 121.01620 | 65 ft | 14 kts | 60° |
| 2026-05-08 04:38 | 14.50973 | 121.01716 | 65 ft | 17 kts | 61° |
| 2026-05-08 04:38 | 14.51029 | 121.01778 | 69 ft | 11 kts | 345° |
| 2026-05-08 04:38 | 14.51056 | 121.01756 | 69 ft | 0 kts | 311° |
| 2026-05-08 04:38 | 14.51080 | 121.01730 | 66 ft | 19 kts | 314° |
| 2026-05-08 04:39 | 14.51373 | 121.01426 | 64 ft | 97 kts | 315° |
| 2026-05-08 04:39 | 14.51996 | 121.00780 | 69 ft | 154 kts | 315° |
| 2026-05-08 04:39 | 14.52807 | 120.99929 | 333 ft | 174 kts | 315° |
| 2026-05-08 04:39 | 14.53651 | 120.99050 | 1055 ft | 172 kts | 316° |
| 2026-05-08 04:40 | 14.54507 | 120.98160 | 1585 ft | 183 kts | 313° |
| 2026-05-08 04:40 | 14.55239 | 120.97054 | 1785 ft | 205 kts | 300° |
| 2026-05-08 04:40 | 14.56053 | 120.95762 | 1980 ft | 227 kts | 309° |
| 2026-05-08 04:40 | 14.56993 | 120.94493 | 2537 ft | 232 kts | 308° |
| 2026-05-08 04:41 | 14.57709 | 120.93085 | 3071 ft | 243 kts | 285° |
| 2026-05-08 04:41 | 14.57669 | 120.91184 | 3364 ft | 267 kts | 249° |
| 2026-05-08 04:41 | 14.56584 | 120.89606 | 3817 ft | 277 kts | 214° |
| 2026-05-08 04:41 | 14.54845 | 120.88876 | 4500 ft | 276 kts | 181° |
| 2026-05-08 04:42 | 14.53014 | 120.89104 | 5233 ft | 275 kts | 163° |
| 2026-05-08 04:42 | 14.51128 | 120.89472 | 6024 ft | 278 kts | 168° |
| 2026-05-08 04:42 | 14.49195 | 120.89729 | 6777 ft | 282 kts | 171° |
| 2026-05-08 04:42 | 14.47282 | 120.89946 | 7522 ft | 285 kts | 171° |
| 2026-05-08 04:43 | 14.45305 | 120.90169 | 8238 ft | 289 kts | 171° |
| 2026-05-08 04:43 | 14.43295 | 120.90410 | 8966 ft | 293 kts | 171° |
| 2026-05-08 04:43 | 14.41319 | 120.90662 | 9648 ft | 297 kts | 170° |
| 2026-05-08 04:43 | 14.39401 | 120.90917 | 10180 ft | 305 kts | 169° |
| 2026-05-08 04:44 | 14.37189 | 120.91220 | 10333 ft | 329 kts | 170° |
| 2026-05-08 04:44 | 14.34836 | 120.91549 | 10511 ft | 350 kts | 169° |
| 2026-05-08 04:44 | 14.32458 | 120.91854 | 10662 ft | 339 kts | 171° |
| 2026-05-08 04:44 | 14.30163 | 120.92101 | 10777 ft | 326 kts | 172° |
| 2026-05-08 04:45 | 14.27938 | 120.92341 | 10817 ft | 318 kts | 171° |
| 2026-05-08 04:45 | 14.25763 | 120.92597 | 10816 ft | 312 kts | 171° |
| 2026-05-08 04:45 | 14.23629 | 120.92870 | 10818 ft | 307 kts | 170° |
| 2026-05-08 04:45 | 14.21551 | 120.93153 | 10803 ft | 303 kts | 169° |
| 2026-05-08 04:46 | 14.19440 | 120.93462 | 10805 ft | 312 kts | 168° |
| 2026-05-08 04:46 | 14.17315 | 120.93787 | 10811 ft | 320 kts | 169° |
| 2026-05-08 04:46 | 14.15110 | 120.94123 | 10815 ft | 329 kts | 169° |
| 2026-05-08 04:46 | 14.12816 | 120.94464 | 10814 ft | 337 kts | 169° |
| 2026-05-08 04:47 | 14.10514 | 120.94794 | 10814 ft | 345 kts | 170° |
| 2026-05-08 04:47 | 14.08354 | 120.95100 | 10813 ft | 342 kts | 170° |
| 2026-05-08 04:47 | 14.05873 | 120.95112 | 10797 ft | 328 kts | 191° |
| 2026-05-08 04:47 | 14.03912 | 120.94286 | 10745 ft | 319 kts | 213° |
| 2026-05-08 04:48 | 14.02350 | 120.92702 | 10500 ft | 314 kts | 234° |
| 2026-05-08 04:48 | 14.01295 | 120.91072 | 10243 ft | 312 kts | 237° |
| 2026-05-08 04:48 | 14.00103 | 120.89131 | 9872 ft | 311 kts | 237° |
| 2026-05-08 04:48 | 13.98957 | 120.87257 | 9523 ft | 310 kts | 237° |
| 2026-05-08 04:49 | 13.97817 | 120.85386 | 9167 ft | 308 kts | 237° |
| 2026-05-08 04:49 | 13.97068 | 120.84153 | 8946 ft | 306 kts | 237° |
| 2026-05-08 04:49 | 13.95568 | 120.81673 | 8503 ft | 304 kts | 237° |
| 2026-05-08 04:49 | 13.94456 | 120.79829 | 8154 ft | 303 kts | 237° |
| 2026-05-08 04:50 | 13.93362 | 120.78012 | 7830 ft | 302 kts | 237° |
| 2026-05-08 04:50 | 13.92289 | 120.76222 | 7531 ft | 300 kts | 237° |
| 2026-05-08 04:50 | 13.91206 | 120.74394 | 7162 ft | 298 kts | 240° |
| 2026-05-08 04:50 | 13.90538 | 120.72438 | 6818 ft | 298 kts | 262° |
| 2026-05-08 04:51 | 13.90608 | 120.70384 | 6466 ft | 295 kts | 284° |
| 2026-05-08 04:51 | 13.91364 | 120.68589 | 6173 ft | 293 kts | 306° |
| 2026-05-08 04:51 | 13.92847 | 120.67077 | 5896 ft | 285 kts | 330° |
| 2026-05-08 04:51 | 13.94640 | 120.66298 | 5589 ft | 277 kts | 352° |
| 2026-05-08 04:52 | 13.96539 | 120.66215 | 5234 ft | 273 kts | 8° |
| 2026-05-08 04:52 | 13.98380 | 120.66378 | 5000 ft | 270 kts | 8° |
| 2026-05-08 04:52 | 14.00257 | 120.66549 | 4988 ft | 272 kts | 8° |
| 2026-05-08 04:52 | 14.02139 | 120.66725 | 4987 ft | 272 kts | 8° |
| 2026-05-08 04:53 | 14.04033 | 120.66899 | 4992 ft | 273 kts | 8° |
| 2026-05-08 04:53 | 14.05924 | 120.67069 | 4992 ft | 273 kts | 8° |
| 2026-05-08 04:53 | 14.07802 | 120.67331 | 4986 ft | 271 kts | 14° |
| 2026-05-08 04:53 | 14.09622 | 120.67723 | 4994 ft | 270 kts | 15° |
| 2026-05-08 04:54 | 14.11430 | 120.68079 | 4991 ft | 270 kts | 13° |
| 2026-05-08 04:54 | 14.13302 | 120.68361 | 4992 ft | 273 kts | 11° |
| 2026-05-08 04:54 | 14.15193 | 120.68560 | 4990 ft | 273 kts | 7° |
| 2026-05-08 04:54 | 14.17091 | 120.68698 | 4994 ft | 272 kts | 6° |
| 2026-05-08 04:55 | 14.18918 | 120.68785 | 4973 ft | 258 kts | 6° |
| 2026-05-08 04:55 | 14.20650 | 120.68842 | 5000 ft | 244 kts | 5° |
| 2026-05-08 04:55 | 14.22290 | 120.68884 | 5003 ft | 228 kts | 6° |
| 2026-05-08 04:55 | 14.23804 | 120.68924 | 5000 ft | 214 kts | 7° |
| 2026-05-08 04:56 | 14.25236 | 120.68968 | 5034 ft | 201 kts | 7° |
| 2026-05-08 04:56 | 14.26627 | 120.69028 | 5009 ft | 198 kts | 8° |
| 2026-05-08 04:56 | 14.28001 | 120.69092 | 4996 ft | 198 kts | 8° |
| 2026-05-08 04:56 | 14.29381 | 120.69162 | 4992 ft | 199 kts | 7° |
| 2026-05-08 04:57 | 14.30743 | 120.69233 | 5003 ft | 199 kts | 8° |
| 2026-05-08 04:57 | 14.32063 | 120.69544 | 4996 ft | 192 kts | 29° |
| 2026-05-08 04:57 | 14.33129 | 120.70327 | 5002 ft | 187 kts | 51° |
| 2026-05-08 04:57 | 14.33824 | 120.71408 | 5002 ft | 185 kts | 64° |
| 2026-05-08 04:58 | 14.34231 | 120.72180 | 5004 ft | 185 kts | 64° |
| 2026-05-08 04:58 | 14.35065 | 120.73712 | 5008 ft | 185 kts | 63° |
| 2026-05-08 04:58 | 14.35701 | 120.74868 | 5009 ft | 186 kts | 63° |
| 2026-05-08 04:58 | 14.36343 | 120.76028 | 5009 ft | 186 kts | 63° |
| 2026-05-08 04:59 | 14.36772 | 120.76798 | 4855 ft | 188 kts | 62° |
| 2026-05-08 04:59 | 14.37657 | 120.78341 | 4470 ft | 185 kts | 62° |
| 2026-05-08 04:59 | 14.38282 | 120.79433 | 4191 ft | 183 kts | 62° |
| 2026-05-08 04:59 | 14.38717 | 120.80197 | 4008 ft | 182 kts | 62° |
| 2026-05-08 05:00 | 14.39351 | 120.81316 | 3729 ft | 179 kts | 63° |
| 2026-05-08 05:00 | 14.40172 | 120.82773 | 3382 ft | 176 kts | 63° |
| 2026-05-08 05:00 | 14.40578 | 120.83496 | 3203 ft | 175 kts | 62° |
| 2026-05-08 05:00 | 14.41376 | 120.84915 | 2858 ft | 174 kts | 64° |
| 2026-05-08 05:01 | 14.41780 | 120.85637 | 2674 ft | 177 kts | 62° |
| 2026-05-08 05:01 | 14.42393 | 120.86738 | 2410 ft | 175 kts | 62° |
| 2026-05-08 05:01 | 14.42995 | 120.87813 | 2138 ft | 171 kts | 63° |
| 2026-05-08 05:01 | 14.43570 | 120.88851 | 1918 ft | 164 kts | 63° |
| 2026-05-08 05:02 | 14.44114 | 120.89827 | 1890 ft | 153 kts | 62° |
| 2026-05-08 05:02 | 14.44628 | 120.90744 | 1826 ft | 147 kts | 63° |
| 2026-05-08 05:02 | 14.45111 | 120.91629 | 1763 ft | 144 kts | 64° |
| 2026-05-08 05:02 | 14.45601 | 120.92535 | 1710 ft | 144 kts | 64° |
| 2026-05-08 05:03 | 14.46082 | 120.93445 | 1534 ft | 143 kts | 65° |
| 2026-05-08 05:03 | 14.46549 | 120.94304 | 1284 ft | 145 kts | 62° |
| 2026-05-08 05:03 | 14.47080 | 120.95175 | 1126 ft | 142 kts | 62° |
| 2026-05-08 05:03 | 14.47585 | 120.96046 | 973 ft | 141 kts | 62° |
| 2026-05-08 05:04 | 14.48062 | 120.96913 | 779 ft | 143 kts | 62° |
| 2026-05-08 05:04 | 14.48546 | 120.97793 | 626 ft | 142 kts | 63° |
| 2026-05-08 05:04 | 14.49039 | 120.98669 | 455 ft | 140 kts | 61° |
| 2026-05-08 05:04 | 14.49519 | 120.99532 | 266 ft | 142 kts | 63° |
| 2026-05-08 05:05 | 14.49990 | 121.00373 | 86 ft | 138 kts | 60° |
| 2026-05-08 05:05 | 14.50381 | 121.01078 | 67 ft | 71 kts | 60° |
| 2026-05-08 05:05 | 14.50590 | 121.01456 | 62 ft | 55 kts | 60° |
| 2026-05-08 05:05 | 14.50724 | 121.01674 | 66 ft | 27 kts | 48° |
| 2026-05-08 05:06 | 14.50826 | 121.01765 | 66 ft | 10 kts | 37° |
| 2026-05-08 05:06 | 14.50883 | 121.01794 | 68 ft | 8 kts | 355° |
| 2026-05-08 05:06 | 14.50906 | 121.01748 | 66 ft | 8 kts | 262° |
| 2026-05-08 05:06 | 14.50883 | 121.01700 | 68 ft | 7 kts | 252° |
| 2026-05-08 05:07 | 14.50912 | 121.01638 | 67 ft | 13 kts | 289° |
| 2026-05-08 05:07 | 14.50880 | 121.01550 | 68 ft | 14 kts | 237° |
| 2026-05-08 05:07 | 14.50835 | 121.01470 | 65 ft | 10 kts | 243° |
| 2026-05-08 05:07 | 14.50874 | 121.01433 | 62 ft | 8 kts | 330° |
| 2026-05-08 05:08 | 14.50909 | 121.01413 | 68 ft | 0 kts | 331° |
| 2026-05-08 05:08 | 14.50917 | 121.01408 | 66 ft | 0 kts | 330° |